createdAt,value
2017-08-10T00:00:37.239Z,53.47
2017-08-10T00:01:37.267Z,53.85
2017-08-10T00:02:37.287Z,54.33
2017-08-10T00:03:37.309Z,53.85
2017-08-10T00:04:37.331Z,54.05
2017-08-10T00:05:37.353Z,54.24
2017-08-10T00:06:37.377Z,54.24
2017-08-10T00:07:37.413Z,54.24
2017-08-10T00:08:37.429Z,54.24
2017-08-10T00:09:37.452Z,54.14
2017-08-10T00:10:37.476Z,54.43
2017-08-10T00:11:37.496Z,54.33
2017-08-10T00:12:37.520Z,54.14
2017-08-10T00:13:37.550Z,54.05
2017-08-10T00:14:37.569Z,54.05
2017-08-10T00:15:37.588Z,54.14
2017-08-10T00:16:37.615Z,53.95
2017-08-10T00:17:37.638Z,54.14
2017-08-10T00:18:37.658Z,54.24
2017-08-10T00:19:37.688Z,54.24
2017-08-10T00:20:37.719Z,54.24
2017-08-10T00:21:37.731Z,53.95
2017-08-10T00:22:37.761Z,54.24
2017-08-10T00:23:37.794Z,54.43
2017-08-10T00:24:37.801Z,54.05
2017-08-10T00:25:37.826Z,54.14
2017-08-10T00:26:37.849Z,54.05
2017-08-10T00:27:37.873Z,54.24
2017-08-10T00:28:37.894Z,54.14
2017-08-10T00:29:37.918Z,54.24
2017-08-10T00:30:37.944Z,54.14
2017-08-10T00:31:37.967Z,54.14
2017-08-10T00:32:37.989Z,54.14
2017-08-10T00:33:38.013Z,54.05
2017-08-10T00:34:38.039Z,54.24
2017-08-10T00:35:38.061Z,54.14
2017-08-10T00:36:38.082Z,54.05
2017-08-10T00:37:38.113Z,54.14
2017-08-10T00:38:38.128Z,54.05
2017-08-10T00:39:38.151Z,54.05
2017-08-10T00:40:38.191Z,54.05
2017-08-10T00:41:38.200Z,54.14
2017-08-10T00:42:38.223Z,54.05
2017-08-10T00:43:38.245Z,54.05
2017-08-10T00:44:38.270Z,54.05
2017-08-10T00:45:38.293Z,54.05
2017-08-10T00:46:38.315Z,53.95
2017-08-10T00:47:38.343Z,54.24
2017-08-10T00:48:38.364Z,54.14
2017-08-10T00:49:38.388Z,54.14
2017-08-10T00:50:38.413Z,54.05
2017-08-10T00:51:38.436Z,53.95
2017-08-10T00:52:38.463Z,54.05
2017-08-10T00:53:38.486Z,54.14
2017-08-10T00:54:38.504Z,54.53
2017-08-10T00:55:38.529Z,54.11
2017-08-10T00:56:38.558Z,53.75
2017-08-10T00:57:38.579Z,54.24
2017-08-10T00:58:38.601Z,54.05
2017-08-10T00:59:38.626Z,54.14
2017-08-10T01:00:38.647Z,54.24
2017-08-10T01:01:38.671Z,54.43
2017-08-10T01:02:38.695Z,54.40
2017-08-10T01:03:38.723Z,53.92
2017-08-10T01:04:38.787Z,54.31
2017-08-10T01:05:38.765Z,54.43
2017-08-10T01:06:38.791Z,54.40
2017-08-10T01:07:38.813Z,54.50
2017-08-10T01:08:38.835Z,54.43
2017-08-10T01:09:38.861Z,54.40
2017-08-10T01:10:38.891Z,54.14
2017-08-10T01:11:38.907Z,54.31
2017-08-10T01:12:38.927Z,54.14
2017-08-10T01:13:38.953Z,54.05
2017-08-10T01:14:38.971Z,54.40
2017-08-10T01:15:39.009Z,54.40
2017-08-10T01:16:39.043Z,54.62
2017-08-10T01:17:39.046Z,54.24
2017-08-10T01:18:39.070Z,54.24
2017-08-10T01:19:39.093Z,54.31
2017-08-10T01:20:39.117Z,54.40
2017-08-10T01:21:39.139Z,54.40
2017-08-10T01:22:39.163Z,54.62
2017-08-10T01:23:39.185Z,54.40
2017-08-10T01:24:39.209Z,54.40
2017-08-10T01:25:39.233Z,54.60
2017-08-10T01:26:39.257Z,54.40
2017-08-10T01:27:39.291Z,54.40
2017-08-10T01:28:39.308Z,54.53
2017-08-10T01:29:39.334Z,54.40
2017-08-10T01:30:39.358Z,54.43
2017-08-10T01:31:39.383Z,54.62
2017-08-10T01:32:39.396Z,54.43
2017-08-10T01:33:39.421Z,54.40
2017-08-10T01:34:39.456Z,54.43
2017-08-10T01:35:39.470Z,54.40
2017-08-10T01:36:39.492Z,54.62
2017-08-10T01:37:39.520Z,54.43
2017-08-10T01:38:39.538Z,54.50
2017-08-10T01:39:39.572Z,54.40
2017-08-10T01:40:39.593Z,54.31
2017-08-10T01:41:39.609Z,54.31
2017-08-10T01:42:39.634Z,54.50
2017-08-10T01:43:39.720Z,54.40
2017-08-10T01:44:39.683Z,54.31
2017-08-10T01:45:39.705Z,54.40
2017-08-10T01:46:39.741Z,54.50
2017-08-10T01:47:39.751Z,54.50
2017-08-10T01:48:39.780Z,54.31
2017-08-10T01:49:39.804Z,54.62
2017-08-10T01:50:39.832Z,54.53
2017-08-10T01:51:39.855Z,54.40
2017-08-10T01:52:39.871Z,54.31
2017-08-10T01:53:39.894Z,54.50
2017-08-10T01:54:39.915Z,54.21
2017-08-10T01:55:39.946Z,54.60
2017-08-10T01:56:39.969Z,54.60
2017-08-10T01:57:39.986Z,54.50
2017-08-10T01:58:40.011Z,54.33
2017-08-10T01:59:40.033Z,54.43
2017-08-10T02:00:40.057Z,54.21
2017-08-10T02:01:40.079Z,54.31
2017-08-10T02:02:40.105Z,54.31
2017-08-10T02:03:40.127Z,54.43
2017-08-10T02:04:40.154Z,54.31
2017-08-10T02:05:40.174Z,54.40
2017-08-10T02:06:40.200Z,54.24
2017-08-10T02:07:40.226Z,54.50
2017-08-10T02:08:40.244Z,54.21
2017-08-10T02:09:40.268Z,54.31
2017-08-10T02:10:40.288Z,54.40
2017-08-10T02:11:40.325Z,54.50
2017-08-10T02:12:40.339Z,54.31
2017-08-10T02:13:40.365Z,54.11
2017-08-10T02:14:40.387Z,54.31
2017-08-10T02:15:40.409Z,54.21
2017-08-10T02:16:40.435Z,54.31
2017-08-10T02:17:40.462Z,54.50
2017-08-10T02:18:40.479Z,54.21
2017-08-10T02:19:40.502Z,54.40
2017-08-10T02:20:40.531Z,54.50
2017-08-10T02:21:40.547Z,54.50
2017-08-10T02:22:40.569Z,54.02
2017-08-10T02:23:40.594Z,54.21
2017-08-10T02:24:40.622Z,54.21
2017-08-10T02:25:40.646Z,54.31
2017-08-10T02:26:40.666Z,54.21
2017-08-10T02:27:40.690Z,54.50
2017-08-10T02:28:40.713Z,54.24
2017-08-10T02:29:40.751Z,54.40
2017-08-10T02:30:40.759Z,54.21
2017-08-10T02:31:40.782Z,54.31
2017-08-10T02:32:40.805Z,54.21
2017-08-10T02:33:40.831Z,54.31
2017-08-10T02:34:40.852Z,54.02
2017-08-10T02:35:40.876Z,54.40
2017-08-10T02:36:40.905Z,54.40
2017-08-10T02:37:40.926Z,54.40
2017-08-10T02:38:40.945Z,54.40
2017-08-10T02:39:40.988Z,54.02
2017-08-10T02:40:40.993Z,54.40
2017-08-10T02:41:41.015Z,54.50
2017-08-10T02:42:41.039Z,54.40
2017-08-10T02:43:41.065Z,54.21
2017-08-10T02:44:41.086Z,54.50
2017-08-10T02:45:41.118Z,54.40
2017-08-10T02:46:41.135Z,54.50
2017-08-10T02:47:41.157Z,54.21
2017-08-10T02:48:41.182Z,54.50
2017-08-10T02:49:41.207Z,54.21
2017-08-10T02:50:41.227Z,54.02
2017-08-10T02:51:41.253Z,54.40
2017-08-10T02:52:41.273Z,54.50
2017-08-10T02:53:41.295Z,54.50
2017-08-10T02:54:41.321Z,54.21
2017-08-10T02:55:41.344Z,54.50
2017-08-10T02:56:41.368Z,54.31
2017-08-10T02:57:41.391Z,54.40
2017-08-10T02:58:41.413Z,54.50
2017-08-10T02:59:41.486Z,54.50
2017-08-10T03:00:41.459Z,54.50
2017-08-10T03:01:41.484Z,54.11
2017-08-10T03:02:41.507Z,54.50
2017-08-10T03:03:41.532Z,54.69
2017-08-10T03:04:41.560Z,54.69
2017-08-10T03:05:41.576Z,54.88
2017-08-10T03:06:41.599Z,54.50
2017-08-10T03:07:41.622Z,54.69
2017-08-10T03:08:41.646Z,54.31
2017-08-10T03:09:41.671Z,54.60
2017-08-10T03:10:41.698Z,54.40
2017-08-10T03:11:41.717Z,54.31
2017-08-10T03:12:41.742Z,54.21
2017-08-10T03:13:41.771Z,54.50
2017-08-10T03:14:41.786Z,54.79
2017-08-10T03:15:41.810Z,54.50
2017-08-10T03:16:41.835Z,54.60
2017-08-10T03:17:41.855Z,54.31
2017-08-10T03:18:41.881Z,54.98
2017-08-10T03:19:41.915Z,54.69
2017-08-10T03:20:41.932Z,54.60
2017-08-10T03:21:41.954Z,54.79
2017-08-10T03:22:41.982Z,54.79
2017-08-10T03:23:41.997Z,55.08
2017-08-10T03:24:42.022Z,54.60
2017-08-10T03:25:42.208Z,54.79
2017-08-10T03:26:42.073Z,54.79
2017-08-10T03:27:42.092Z,54.69
2017-08-10T03:28:42.123Z,54.69
2017-08-10T03:29:42.136Z,54.60
2017-08-10T03:30:42.165Z,54.50
2017-08-10T03:31:42.190Z,54.79
2017-08-10T03:32:42.217Z,54.79
2017-08-10T03:33:42.228Z,54.40
2017-08-10T03:34:42.256Z,54.60
2017-08-10T03:35:42.277Z,55.08
2017-08-10T03:36:42.300Z,55.08
2017-08-10T03:37:42.335Z,54.31
2017-08-10T03:38:42.353Z,54.50
2017-08-10T03:39:42.369Z,55.08
2017-08-10T03:40:42.398Z,54.79
2017-08-10T03:41:42.417Z,54.21
2017-08-10T03:42:42.438Z,54.21
2017-08-10T03:43:42.472Z,54.60
2017-08-10T03:44:42.489Z,54.79
2017-08-10T03:45:42.510Z,54.88
2017-08-10T03:46:42.537Z,54.88
2017-08-10T03:47:42.555Z,54.79
2017-08-10T03:48:42.580Z,55.08
2017-08-10T03:49:42.791Z,55.08
2017-08-10T03:50:42.630Z,54.69
2017-08-10T03:51:42.654Z,55.08
2017-08-10T03:52:42.674Z,54.60
2017-08-10T03:53:42.696Z,54.88
2017-08-10T03:54:42.729Z,54.98
2017-08-10T03:55:42.758Z,54.88
2017-08-10T03:56:42.765Z,55.18
2017-08-10T03:57:42.790Z,54.69
2017-08-10T03:58:42.812Z,54.88
2017-08-10T03:59:42.838Z,54.88
2017-08-10T04:00:42.873Z,54.60
2017-08-10T04:01:42.882Z,55.08
2017-08-10T04:02:42.921Z,54.79
2017-08-10T04:03:42.928Z,54.79
2017-08-10T04:04:42.954Z,54.88
2017-08-10T04:05:42.978Z,54.88
2017-08-10T04:06:42.996Z,54.69
2017-08-10T04:07:43.023Z,55.18
2017-08-10T04:08:43.050Z,54.98
2017-08-10T04:09:43.070Z,54.88
2017-08-10T04:10:43.093Z,54.60
2017-08-10T04:11:43.119Z,54.88
2017-08-10T04:12:43.140Z,54.69
2017-08-10T04:13:43.160Z,54.98
2017-08-10T04:14:43.186Z,54.79
2017-08-10T04:15:43.219Z,54.60
2017-08-10T04:16:43.231Z,54.98
2017-08-10T04:17:43.252Z,54.88
2017-08-10T04:18:43.281Z,54.98
2017-08-10T04:19:43.301Z,54.98
2017-08-10T04:20:43.326Z,54.60
2017-08-10T04:21:43.357Z,54.79
2017-08-10T04:22:43.373Z,54.79
2017-08-10T04:23:43.394Z,54.88
2017-08-10T04:24:43.418Z,54.88
2017-08-10T04:25:43.440Z,54.88
2017-08-10T04:26:43.467Z,54.79
2017-08-10T04:27:43.486Z,54.88
2017-08-10T04:28:43.511Z,54.88
2017-08-10T04:29:43.536Z,54.88
2017-08-10T04:30:43.556Z,54.88
2017-08-10T04:31:43.581Z,54.98
2017-08-10T04:32:43.602Z,54.69
2017-08-10T04:33:43.627Z,54.98
2017-08-10T04:34:43.648Z,54.88
2017-08-10T04:35:43.673Z,54.88
2017-08-10T04:36:43.695Z,54.79
2017-08-10T04:37:43.744Z,54.79
2017-08-10T04:38:43.746Z,54.69
2017-08-10T04:39:43.768Z,55.08
2017-08-10T04:40:43.790Z,54.79
2017-08-10T04:41:43.815Z,54.79
2017-08-10T04:42:43.837Z,54.79
2017-08-10T04:43:43.862Z,55.08
2017-08-10T04:44:43.885Z,54.98
2017-08-10T04:45:43.907Z,54.79
2017-08-10T04:46:43.929Z,54.79
2017-08-10T04:47:43.956Z,54.88
2017-08-10T04:48:43.979Z,54.88
2017-08-10T04:49:44.001Z,54.60
2017-08-10T04:50:44.024Z,54.88
2017-08-10T04:51:44.046Z,54.88
2017-08-10T04:52:44.074Z,54.98
2017-08-10T04:53:44.094Z,54.88
2017-08-10T04:54:44.116Z,54.69
2017-08-10T04:55:44.143Z,54.79
2017-08-10T04:56:44.165Z,54.88
2017-08-10T04:57:44.186Z,54.98
2017-08-10T04:58:44.209Z,54.69
2017-08-10T04:59:44.233Z,54.79
2017-08-10T05:00:44.256Z,54.88
2017-08-10T05:01:44.289Z,54.69
2017-08-10T05:02:44.317Z,55.36
2017-08-10T05:03:44.328Z,55.08
2017-08-10T05:04:44.350Z,54.88
2017-08-10T05:05:44.374Z,54.79
2017-08-10T05:06:44.394Z,54.98
2017-08-10T05:07:44.420Z,54.88
2017-08-10T05:08:44.452Z,54.88
2017-08-10T05:09:44.466Z,55.08
2017-08-10T05:10:44.492Z,54.79
2017-08-10T05:11:44.516Z,54.88
2017-08-10T05:12:44.537Z,55.08
2017-08-10T05:13:44.565Z,54.98
2017-08-10T05:14:44.585Z,54.69
2017-08-10T05:15:44.606Z,55.36
2017-08-10T05:16:44.629Z,54.88
2017-08-10T05:17:44.658Z,54.98
2017-08-10T05:18:44.675Z,54.98
2017-08-10T05:19:44.703Z,54.88
2017-08-10T05:20:44.727Z,54.50
2017-08-10T05:21:44.889Z,55.08
2017-08-10T05:22:44.769Z,54.98
2017-08-10T05:23:44.792Z,54.88
2017-08-10T05:24:44.813Z,54.79
2017-08-10T05:25:44.839Z,54.21
2017-08-10T05:26:44.862Z,54.79
2017-08-10T05:27:44.886Z,54.60
2017-08-10T05:28:44.908Z,54.21
2017-08-10T05:29:44.937Z,54.50
2017-08-10T05:30:44.960Z,54.60
2017-08-10T05:31:44.986Z,54.79
2017-08-10T05:32:45.006Z,54.40
2017-08-10T05:33:45.024Z,54.50
2017-08-10T05:34:45.047Z,54.11
2017-08-10T05:35:45.073Z,54.40
2017-08-10T05:36:45.094Z,54.40
2017-08-10T05:37:45.126Z,54.40
2017-08-10T05:38:45.144Z,54.50
2017-08-10T05:39:45.167Z,54.21
2017-08-10T05:40:45.188Z,54.50
2017-08-10T05:41:45.214Z,54.60
2017-08-10T05:42:45.233Z,54.31
2017-08-10T05:43:45.258Z,54.31
2017-08-10T05:44:45.284Z,54.60
2017-08-10T05:45:45.314Z,54.40
2017-08-10T05:46:45.325Z,54.02
2017-08-10T05:47:45.351Z,54.21
2017-08-10T05:48:45.377Z,54.31
2017-08-10T05:49:45.410Z,54.02
2017-08-10T05:50:45.419Z,54.21
2017-08-10T05:51:45.445Z,54.40
2017-08-10T05:52:45.470Z,54.11
2017-08-10T05:53:45.492Z,54.50
2017-08-10T05:54:45.514Z,54.40
2017-08-10T05:55:45.537Z,54.40
2017-08-10T05:56:45.562Z,54.50
2017-08-10T05:57:45.615Z,54.50
2017-08-10T05:58:45.607Z,54.02
2017-08-10T05:59:45.628Z,54.02
2017-08-10T06:00:45.655Z,54.40
2017-08-10T06:01:45.678Z,54.40
2017-08-10T06:02:45.698Z,54.40
2017-08-10T06:03:45.723Z,54.40
2017-08-10T06:04:45.746Z,54.40
2017-08-10T06:05:45.769Z,54.11
2017-08-10T06:06:45.790Z,54.40
2017-08-10T06:07:45.818Z,54.40
2017-08-10T06:08:45.842Z,54.21
2017-08-10T06:09:45.866Z,54.21
2017-08-10T06:10:45.886Z,54.11
2017-08-10T06:11:45.910Z,54.40
2017-08-10T06:12:45.936Z,54.40
2017-08-10T06:13:45.960Z,54.50
2017-08-10T06:14:45.981Z,54.50
2017-08-10T06:15:46.002Z,54.40
2017-08-10T06:16:46.030Z,54.40
2017-08-10T06:17:46.050Z,54.40
2017-08-10T06:18:46.074Z,54.50
2017-08-10T06:19:46.099Z,54.69
2017-08-10T06:20:46.129Z,54.79
2017-08-10T06:21:46.149Z,54.69
2017-08-10T06:22:46.164Z,55.08
2017-08-10T06:23:46.187Z,54.40
2017-08-10T06:24:46.213Z,54.50
2017-08-10T06:25:46.236Z,54.79
2017-08-10T06:26:46.258Z,54.79
2017-08-10T06:27:46.291Z,54.31
2017-08-10T06:28:46.304Z,54.50
2017-08-10T06:29:46.331Z,54.31
2017-08-10T06:30:46.352Z,54.50
2017-08-10T06:31:46.377Z,54.50
2017-08-10T06:32:46.399Z,54.50
2017-08-10T06:33:46.421Z,54.50
2017-08-10T06:34:46.443Z,54.40
2017-08-10T06:35:46.467Z,54.21
2017-08-10T06:36:46.491Z,54.50
2017-08-10T06:37:46.515Z,54.40
2017-08-10T06:38:46.539Z,54.40
2017-08-10T06:39:46.561Z,54.50
2017-08-10T06:40:46.583Z,54.50
2017-08-10T06:41:46.621Z,54.50
2017-08-10T06:42:46.629Z,54.50
2017-08-10T06:43:46.666Z,54.21
2017-08-10T06:44:46.677Z,54.21
2017-08-10T06:45:46.705Z,54.50
2017-08-10T06:46:46.723Z,54.40
2017-08-10T06:47:46.750Z,54.40
2017-08-10T06:48:46.771Z,54.50
2017-08-10T06:49:46.794Z,54.50
2017-08-10T06:50:46.820Z,54.21
2017-08-10T06:51:46.841Z,54.02
2017-08-10T06:52:46.870Z,54.02
2017-08-10T06:53:46.889Z,53.92
2017-08-10T06:54:46.910Z,54.02
2017-08-10T06:55:46.934Z,54.02
2017-08-10T06:56:46.957Z,54.11
2017-08-10T06:57:46.982Z,54.02
2017-08-10T06:58:47.005Z,53.92
2017-08-10T06:59:47.027Z,54.02
2017-08-10T07:00:47.052Z,54.11
2017-08-10T07:01:47.075Z,53.73
2017-08-10T07:02:47.099Z,54.02
2017-08-10T07:03:47.123Z,54.02
2017-08-10T07:04:47.144Z,54.60
2017-08-10T07:05:47.171Z,54.31
2017-08-10T07:06:47.191Z,54.60
2017-08-10T07:07:47.213Z,54.11
2017-08-10T07:08:47.245Z,54.02
2017-08-10T07:09:47.265Z,54.11
2017-08-10T07:10:47.291Z,53.73
2017-08-10T07:11:47.308Z,53.92
2017-08-10T07:12:47.334Z,54.02
2017-08-10T07:13:47.356Z,54.11
2017-08-10T07:14:47.379Z,53.83
2017-08-10T07:15:47.400Z,54.02
2017-08-10T07:16:47.423Z,53.92
2017-08-10T07:17:47.464Z,53.92
2017-08-10T07:18:47.473Z,54.02
2017-08-10T07:19:47.493Z,54.02
2017-08-10T07:20:47.529Z,54.02
2017-08-10T07:21:47.547Z,54.11
2017-08-10T07:22:47.564Z,54.11
2017-08-10T07:23:47.666Z,54.11
2017-08-10T07:24:47.611Z,54.21
2017-08-10T07:25:47.634Z,54.21
2017-08-10T07:26:47.686Z,54.21
2017-08-10T07:27:47.681Z,54.11
2017-08-10T07:28:47.705Z,54.11
2017-08-10T07:29:47.728Z,54.11
2017-08-10T07:30:47.753Z,54.21
2017-08-10T07:31:47.774Z,54.40
2017-08-10T07:32:47.802Z,53.73
2017-08-10T07:33:47.822Z,54.33
2017-08-10T07:34:47.845Z,54.31
2017-08-10T07:35:47.873Z,53.73
2017-08-10T07:36:47.893Z,53.63
2017-08-10T07:37:47.916Z,53.63
2017-08-10T07:38:47.940Z,53.63
2017-08-10T07:39:47.963Z,53.56
2017-08-10T07:40:47.987Z,53.83
2017-08-10T07:41:48.010Z,53.85
2017-08-10T07:42:48.039Z,53.95
2017-08-10T07:43:48.066Z,53.83
2017-08-10T07:44:48.084Z,53.44
2017-08-10T07:45:48.112Z,53.83
2017-08-10T07:46:48.125Z,53.73
2017-08-10T07:47:48.149Z,53.53
2017-08-10T07:48:48.174Z,53.66
2017-08-10T07:49:48.200Z,53.95
2017-08-10T07:50:48.220Z,54.14
2017-08-10T07:51:48.246Z,53.37
2017-08-10T07:52:48.269Z,53.27
2017-08-10T07:53:48.291Z,53.08
2017-08-10T07:54:48.312Z,53.08
2017-08-10T07:55:48.337Z,53.27
2017-08-10T07:56:48.363Z,53.17
2017-08-10T07:57:48.393Z,52.98
2017-08-10T07:58:48.409Z,53.17
2017-08-10T07:59:48.431Z,53.08
2017-08-10T08:00:48.466Z,53.17
2017-08-10T08:01:48.481Z,53.08
2017-08-10T08:02:48.502Z,52.89
2017-08-10T08:03:48.532Z,52.98
2017-08-10T08:04:48.550Z,53.08
2017-08-10T08:05:48.580Z,52.79
2017-08-10T08:06:48.599Z,52.89
2017-08-10T08:07:48.628Z,52.59
2017-08-10T08:08:48.649Z,52.79
2017-08-10T08:09:48.672Z,52.89
2017-08-10T08:10:48.695Z,53.17
2017-08-10T08:11:48.720Z,52.89
2017-08-10T08:12:48.744Z,52.89
2017-08-10T08:13:48.772Z,52.50
2017-08-10T08:14:48.798Z,52.50
2017-08-10T08:15:48.817Z,52.31
2017-08-10T08:16:48.837Z,52.59
2017-08-10T08:17:48.862Z,52.59
2017-08-10T08:18:48.889Z,52.69
2017-08-10T08:19:48.910Z,52.59
2017-08-10T08:20:48.943Z,52.50
2017-08-10T08:21:48.961Z,52.40
2017-08-10T08:22:48.984Z,52.11
2017-08-10T08:23:49.012Z,52.21
2017-08-10T08:24:49.044Z,52.01
2017-08-10T08:25:49.060Z,52.31
2017-08-10T08:26:49.083Z,52.23
2017-08-10T08:27:49.108Z,51.56
2017-08-10T08:28:49.130Z,51.17
2017-08-10T08:29:49.155Z,50.43
2017-08-10T08:30:49.179Z,50.23
2017-08-10T08:31:49.202Z,50.62
2017-08-10T08:32:49.233Z,50.71
2017-08-10T08:33:49.252Z,51.01
2017-08-10T08:34:49.297Z,51.27
2017-08-10T08:35:49.307Z,50.79
2017-08-10T08:36:49.329Z,51.17
2017-08-10T08:37:49.356Z,51.46
2017-08-10T08:38:49.376Z,51.37
2017-08-10T08:39:49.402Z,51.46
2017-08-10T08:40:49.426Z,51.37
2017-08-10T08:41:49.448Z,51.37
2017-08-10T08:42:49.474Z,51.46
2017-08-10T08:43:49.499Z,51.37
2017-08-10T08:44:49.525Z,51.37
2017-08-10T08:45:49.551Z,51.07
2017-08-10T08:46:49.568Z,51.37
2017-08-10T08:47:49.607Z,51.56
2017-08-10T08:48:49.626Z,51.27
2017-08-10T08:49:49.648Z,51.27
2017-08-10T08:50:49.669Z,51.56
2017-08-10T08:51:49.701Z,51.46
2017-08-10T08:52:49.721Z,51.37
2017-08-10T08:53:49.764Z,51.46
2017-08-10T08:54:49.773Z,51.46
2017-08-10T08:55:49.794Z,51.37
2017-08-10T08:56:49.817Z,51.37
2017-08-10T08:57:49.842Z,51.27
2017-08-10T08:58:49.871Z,51.46
2017-08-10T08:59:49.892Z,51.37
2017-08-10T09:00:49.924Z,51.46
2017-08-10T09:01:49.940Z,51.17
2017-08-10T09:02:49.966Z,51.46
2017-08-10T09:03:49.990Z,51.46
2017-08-10T09:04:50.016Z,51.46
2017-08-10T09:05:50.052Z,51.27
2017-08-10T09:06:50.068Z,51.27
2017-08-10T09:07:50.088Z,51.17
2017-08-10T09:08:50.134Z,51.56
2017-08-10T09:09:50.139Z,51.46
2017-08-10T09:10:50.170Z,51.07
2017-08-10T09:11:50.191Z,51.37
2017-08-10T09:12:50.214Z,51.37
2017-08-10T09:13:50.241Z,51.37
2017-08-10T09:14:50.264Z,51.37
2017-08-10T09:15:50.435Z,51.46
2017-08-10T09:16:50.320Z,51.46
2017-08-10T09:17:50.344Z,51.37
2017-08-10T09:18:50.362Z,51.37
2017-08-10T09:19:50.396Z,51.37
2017-08-10T09:20:50.420Z,51.46
2017-08-10T09:21:50.453Z,51.37
2017-08-10T09:22:50.686Z,51.75
2017-08-10T09:23:50.569Z,51.56
2017-08-10T09:24:50.512Z,51.85
2017-08-10T09:25:50.545Z,51.65
2017-08-10T09:26:50.559Z,51.46
2017-08-10T09:27:50.591Z,51.75
2017-08-10T09:28:50.613Z,51.95
2017-08-10T09:29:50.637Z,52.04
2017-08-10T09:30:50.661Z,52.04
2017-08-10T09:31:50.685Z,52.04
2017-08-10T09:32:50.709Z,52.04
2017-08-10T09:33:50.736Z,52.14
2017-08-10T09:34:50.760Z,52.14
2017-08-10T09:35:50.782Z,52.04
2017-08-10T09:36:50.812Z,52.14
2017-08-10T09:37:50.833Z,52.14
2017-08-10T09:38:50.869Z,52.14
2017-08-10T09:39:50.907Z,52.14
2017-08-10T09:40:50.906Z,52.04
2017-08-10T09:41:50.933Z,51.56
2017-08-10T09:42:50.958Z,51.75
2017-08-10T09:43:50.979Z,51.27
2017-08-10T09:44:51.007Z,51.46
2017-08-10T09:45:51.032Z,51.17
2017-08-10T09:46:51.054Z,51.07
2017-08-10T09:47:51.079Z,51.17
2017-08-10T09:48:51.108Z,50.69
2017-08-10T09:49:51.133Z,50.98
2017-08-10T09:50:51.160Z,50.98
2017-08-10T09:51:51.177Z,50.89
2017-08-10T09:52:51.201Z,50.33
2017-08-10T09:53:51.226Z,50.52
2017-08-10T09:54:51.253Z,50.62
2017-08-10T09:55:51.275Z,50.13
2017-08-10T09:56:51.301Z,50.13
2017-08-10T09:57:51.325Z,50.52
2017-08-10T09:58:51.350Z,50.43
2017-08-10T09:59:51.377Z,50.23
2017-08-10T10:00:51.401Z,50.43
2017-08-10T10:01:51.432Z,50.33
2017-08-10T10:02:51.469Z,50.81
2017-08-10T10:03:51.493Z,50.91
2017-08-10T10:04:51.502Z,50.31
2017-08-10T10:05:51.528Z,50.43
2017-08-10T10:06:51.551Z,50.23
2017-08-10T10:07:51.580Z,50.43
2017-08-10T10:08:51.602Z,50.52
2017-08-10T10:09:51.629Z,50.71
2017-08-10T10:10:51.652Z,50.33
2017-08-10T10:11:51.694Z,49.95
2017-08-10T10:12:51.703Z,50.13
2017-08-10T10:13:51.735Z,50.13
2017-08-10T10:14:51.752Z,50.13
2017-08-10T10:15:51.777Z,50.33
2017-08-10T10:16:51.802Z,50.23
2017-08-10T10:17:51.962Z,50.13
2017-08-10T10:18:51.855Z,50.33
2017-08-10T10:19:51.879Z,50.33
2017-08-10T10:20:51.902Z,50.13
2017-08-10T10:21:51.929Z,50.33
2017-08-10T10:22:51.957Z,50.43
2017-08-10T10:23:51.981Z,50.23
2017-08-10T10:24:52.003Z,49.95
2017-08-10T10:25:52.031Z,49.85
2017-08-10T10:26:52.053Z,49.95
2017-08-10T10:27:52.077Z,49.75
2017-08-10T10:28:52.111Z,49.75
2017-08-10T10:29:52.132Z,49.55
2017-08-10T10:30:52.175Z,49.75
2017-08-10T10:31:52.183Z,49.58
2017-08-10T10:32:52.221Z,50.04
2017-08-10T10:33:52.230Z,49.77
2017-08-10T10:34:52.261Z,49.75
2017-08-10T10:35:52.283Z,50.04
2017-08-10T10:36:52.309Z,49.85
2017-08-10T10:37:52.332Z,49.55
2017-08-10T10:38:52.358Z,49.55
2017-08-10T10:39:52.385Z,49.46
2017-08-10T10:40:52.424Z,49.87
2017-08-10T10:41:52.472Z,49.68
2017-08-10T10:42:52.457Z,49.19
2017-08-10T10:43:52.492Z,49.29
2017-08-10T10:44:52.509Z,49.39
2017-08-10T10:45:52.538Z,49.68
2017-08-10T10:46:52.561Z,49.75
2017-08-10T10:47:52.617Z,49.85
2017-08-10T10:48:52.607Z,49.55
2017-08-10T10:49:52.636Z,49.85
2017-08-10T10:50:52.660Z,49.75
2017-08-10T10:51:52.686Z,49.55
2017-08-10T10:52:52.714Z,49.85
2017-08-10T10:53:52.737Z,49.55
2017-08-10T10:54:52.769Z,49.55
2017-08-10T10:55:52.788Z,49.85
2017-08-10T10:56:52.815Z,49.85
2017-08-10T10:57:52.840Z,50.07
2017-08-10T10:58:52.862Z,49.55
2017-08-10T10:59:52.892Z,49.85
2017-08-10T11:00:52.912Z,49.46
2017-08-10T11:01:52.942Z,49.58
2017-08-10T11:02:52.968Z,49.68
2017-08-10T11:03:52.991Z,49.75
2017-08-10T11:04:53.016Z,49.65
2017-08-10T11:05:53.038Z,49.49
2017-08-10T11:06:53.068Z,49.75
2017-08-10T11:07:53.098Z,49.75
2017-08-10T11:08:53.114Z,49.68
2017-08-10T11:09:53.145Z,49.75
2017-08-10T11:10:53.165Z,49.55
2017-08-10T11:11:53.195Z,49.49
2017-08-10T11:12:53.219Z,49.46
2017-08-10T11:13:53.242Z,49.75
2017-08-10T11:14:53.270Z,49.77
2017-08-10T11:15:53.298Z,49.75
2017-08-10T11:16:53.322Z,49.65
2017-08-10T11:17:53.348Z,49.65
2017-08-10T11:18:53.368Z,49.55
2017-08-10T11:19:53.395Z,49.75
2017-08-10T11:20:53.419Z,49.85
2017-08-10T11:21:53.445Z,49.65
2017-08-10T11:22:53.468Z,49.55
2017-08-10T11:23:53.495Z,50.04
2017-08-10T11:24:53.522Z,49.85
2017-08-10T11:25:53.552Z,49.49
2017-08-10T11:26:53.582Z,49.49
2017-08-10T11:27:53.599Z,49.65
2017-08-10T11:28:53.623Z,49.77
2017-08-10T11:29:53.648Z,49.65
2017-08-10T11:30:53.672Z,49.55
2017-08-10T11:31:53.700Z,49.49
2017-08-10T11:32:53.725Z,49.37
2017-08-10T11:33:53.757Z,49.77
2017-08-10T11:34:53.773Z,49.77
2017-08-10T11:35:53.798Z,49.29
2017-08-10T11:36:53.825Z,49.19
2017-08-10T11:37:53.853Z,49.29
2017-08-10T11:38:53.875Z,49.19
2017-08-10T11:39:53.900Z,49.19
2017-08-10T11:40:53.927Z,49.29
2017-08-10T11:41:53.954Z,49.49
2017-08-10T11:42:53.979Z,49.39
2017-08-10T11:43:54.005Z,49.39
2017-08-10T11:44:54.026Z,49.00
2017-08-10T11:45:54.054Z,49.19
2017-08-10T11:46:54.087Z,49.29
2017-08-10T11:47:54.114Z,49.58
2017-08-10T11:48:54.134Z,49.68
2017-08-10T11:49:54.162Z,49.97
2017-08-10T11:50:54.179Z,49.19
2017-08-10T11:51:54.212Z,49.77
2017-08-10T11:52:54.238Z,49.39
2017-08-10T11:53:54.257Z,49.75
2017-08-10T11:54:54.280Z,49.46
2017-08-10T11:55:54.310Z,49.75
2017-08-10T11:56:54.339Z,49.55
2017-08-10T11:57:54.370Z,50.13
2017-08-10T11:58:54.386Z,50.13
2017-08-10T11:59:54.405Z,50.13
2017-08-10T12:00:54.432Z,50.43
2017-08-10T12:01:54.459Z,50.43
2017-08-10T12:02:54.486Z,49.85
2017-08-10T12:03:54.516Z,49.65
2017-08-10T12:04:54.535Z,50.52
2017-08-10T12:05:54.559Z,50.62
2017-08-10T12:06:54.585Z,50.23
2017-08-10T12:07:54.612Z,50.04
2017-08-10T12:08:54.635Z,50.52
2017-08-10T12:09:54.660Z,50.04
2017-08-10T12:10:54.684Z,50.43
2017-08-10T12:11:54.714Z,50.13
2017-08-10T12:12:54.734Z,50.23
2017-08-10T12:13:54.761Z,50.33
2017-08-10T12:14:54.786Z,50.52
2017-08-10T12:15:54.809Z,50.62
2017-08-10T12:16:54.833Z,50.62
2017-08-10T12:17:54.859Z,50.71
2017-08-10T12:18:54.884Z,50.52
2017-08-10T12:19:54.914Z,50.62
2017-08-10T12:20:54.933Z,50.52
2017-08-10T12:21:54.966Z,50.33
2017-08-10T12:22:54.985Z,50.52
2017-08-10T12:23:55.008Z,50.91
2017-08-10T12:24:55.035Z,50.89
2017-08-10T12:25:55.059Z,50.91
2017-08-10T12:26:55.089Z,50.79
2017-08-10T12:27:55.119Z,50.62
2017-08-10T12:28:55.137Z,51.01
2017-08-10T12:29:55.160Z,51.01
2017-08-10T12:30:55.194Z,50.98
2017-08-10T12:31:55.213Z,50.89
2017-08-10T12:32:55.235Z,50.98
2017-08-10T12:33:55.263Z,50.98
2017-08-10T12:34:55.285Z,50.98
2017-08-10T12:35:55.316Z,51.01
2017-08-10T12:36:55.334Z,50.98
2017-08-10T12:37:55.360Z,50.98
2017-08-10T12:38:55.386Z,51.07
2017-08-10T12:39:55.419Z,50.98
2017-08-10T12:40:55.449Z,50.91
2017-08-10T12:41:55.460Z,50.89
2017-08-10T12:42:55.498Z,50.98
2017-08-10T12:43:55.510Z,50.62
2017-08-10T12:44:55.538Z,50.79
2017-08-10T12:45:55.560Z,50.91
2017-08-10T12:46:55.585Z,50.91
2017-08-10T12:47:55.615Z,50.89
2017-08-10T12:48:55.642Z,50.62
2017-08-10T12:49:55.662Z,50.89
2017-08-10T12:50:55.687Z,50.98
2017-08-10T12:51:55.709Z,50.91
2017-08-10T12:52:55.740Z,50.91